M I D A S
Marine Information and Data Acquisition System
Tripno 1045 of the Zeeleeuw from 2006-03-07 09:15:18 to 2006-03-07 15:21:46
Back to CruiseResearch ActivitiesStationsMapUnderway DataData graphs

EquipmentUnitsComment
TimeDGPSUTC
LatitudeDGPSDM.mWGS84
LongitudeDGPSDM.mWGS84
HeadingGyrodeg 
SOGDGPSknotsSpeed over ground
COGDGPSdegCourse over ground
DepthEcho soundermeters200 kHz
Missing or incorrect values are displayed as -999
Navigation data collected by the RV Zeeleeuw from 2006-03-07 08:17:53 to 2006-03-07 15:35:08
                                                                                    Next 1000 lines
Time Latitude Longitude Heading SOG COG Depth
2006-03-07 08:18:03 51°13.596 2°56.095 115.2 0.1 189 8
2006-03-07 08:18:08 51°13.596 2°56.095 115 -999 185 8.1
2006-03-07 08:18:13 51°13.596 2°56.095 114.7 -999 192 8.8
2006-03-07 08:18:18 51°13.596 2°56.095 114.6 -999 74 8.3
2006-03-07 08:18:23 51°13.596 2°56.095 114.6 -999 104 8.2
2006-03-07 08:18:28 51°13.595 2°56.094 114.4 -999 171 8.3
2006-03-07 08:18:33 51°13.596 2°56.094 114.2 0.1 201 8.3
2006-03-07 08:18:38 51°13.596 2°56.094 114 0.1 201 8.5
2006-03-07 08:18:43 51°13.596 2°56.094 113.9 -999 205 8.3
2006-03-07 08:18:48 51°13.596 2°56.094 113.8 -999 20 8.3
2006-03-07 08:18:52 51°13.595 2°56.094 113.6 -999 275 8.2
2006-03-07 08:18:58 51°13.595 2°56.094 113.6 -999 225 8.2
2006-03-07 08:19:03 51°13.595 2°56.094 113.6 -999 14 8.4
2006-03-07 08:19:08 51°13.595 2°56.094 113.9 -999 159 8.2
2006-03-07 08:19:13 51°13.595 2°56.094 114.3 0.1 28 8.2
2006-03-07 08:19:18 51°13.595 2°56.094 114.8 -999 11 8.1
2006-03-07 08:19:23 51°13.595 2°56.094 115.4 -999 29 7.9
2006-03-07 08:19:28 51°13.595 2°56.094 116.1 -999 17 7.7
2006-03-07 08:19:33 51°13.595 2°56.094 116.8 -999 10 5.6
2006-03-07 08:19:38 51°13.595 2°56.095 117.3 -999 18 7.6
2006-03-07 08:19:43 51°13.596 2°56.095 117.8 -999 28 7.6
2006-03-07 08:19:48 51°13.596 2°56.095 118.3 -999 4 7.6
2006-03-07 08:19:53 51°13.596 2°56.095 118.7 -999 18 7.6
2006-03-07 08:19:58 51°13.596 2°56.095 119.1 -999 113 7.6
2006-03-07 08:20:03 51°13.596 2°56.095 119.4 -999 211 7.6
2006-03-07 08:20:08 51°13.596 2°56.095 119.7 -999 213 5.6
2006-03-07 08:20:13 51°13.596 2°56.095 120.1 -999 29 7.6
2006-03-07 08:20:18 51°13.596 2°56.095 120.4 -999 124 7.5
2006-03-07 08:20:23 51°13.596 2°56.095 120.5 -999 124 5.6
2006-03-07 08:20:28 51°13.596 2°56.095 120.8 0.1 18 7.5
2006-03-07 08:20:32 51°13.596 2°56.095 121.1 -999 174 5.6
2006-03-07 08:20:38 51°13.596 2°56.095 121.4 -999 38 7.5
2006-03-07 08:20:43 51°13.596 2°56.095 121.9 0.1 20 7.6
2006-03-07 08:20:48 51°13.597 2°56.095 122.6 0.1 17 7.5
2006-03-07 08:20:53 51°13.596 2°56.095 123.4 0.1 17 7.5
2006-03-07 08:20:58 51°13.596 2°56.095 124.3 -999 276 7.5
2006-03-07 08:21:03 51°13.597 2°56.095 125.2 -999 324 7.5
2006-03-07 08:21:08 51°13.597 2°56.095 126.1 -999 244 5.6
2006-03-07 08:21:13 51°13.597 2°56.095 126.8 -999 58 7.5
2006-03-07 08:21:18 51°13.597 2°56.095 127.1 -999 57 7.5
2006-03-07 08:21:23 51°13.597 2°56.095 127.1 -999 47 7.4
2006-03-07 08:21:28 51°13.597 2°56.095 127 -999 59 7.5
2006-03-07 08:21:33 51°13.597 2°56.095 126.9 -999 135 7.5
2006-03-07 08:21:38 51°13.597 2°56.095 126.6 -999 135 7.6
2006-03-07 08:21:43 51°13.597 2°56.095 126.4 0.1 -999 7.4
2006-03-07 08:21:48 51°13.597 2°56.095 126.2 -999 323 7.4
2006-03-07 08:21:53 51°13.597 2°56.095 125.8 -999 40 7.4
2006-03-07 08:21:58 51°13.597 2°56.095 125.4 -999 263 7.4
2006-03-07 08:22:03 51°13.598 2°56.095 125.1 -999 287 5.6
2006-03-07 08:22:08 51°13.598 2°56.095 125 -999 250 7.4
2006-03-07 08:22:13 51°13.598 2°56.095 124.8 -999 211 7.4
2006-03-07 08:22:18 51°13.598 2°56.095 124.8 -999 322 7.4
2006-03-07 08:22:23 51°13.598 2°56.095 124.7 -999 9 7.4
2006-03-07 08:22:28 51°13.599 2°56.095 124.6 -999 103 7.4
2006-03-07 08:22:32 51°13.599 2°56.095 124.6 -999 120 7.4
2006-03-07 08:22:38 51°13.599 2°56.095 124.5 -999 130 -999
2006-03-07 08:22:43 51°13.599 2°56.095 124.5 -999 126 7.4
2006-03-07 08:22:48 51°13.599 2°56.095 124.4 -999 85 7.4
2006-03-07 08:22:53 51°13.599 2°56.095 124.4 -999 3 7.5
2006-03-07 08:22:58 51°13.599 2°56.095 124.4 0.1 20 7.4
2006-03-07 08:23:03 51°13.599 2°56.095 124.5 0.1 18 5.6
2006-03-07 08:23:08 51°13.599 2°56.095 124.5 0.1 24 7.4
2006-03-07 08:23:13 51°13.599 2°56.095 124.5 -999 50 7.4
2006-03-07 08:23:18 51°13.599 2°56.095 124.5 -999 151 7.5
2006-03-07 08:23:23 51°13.599 2°56.096 124.5 -999 139 7.4
2006-03-07 08:23:28 51°13.599 2°56.096 124.5 -999 228 7.4
2006-03-07 08:23:32 51°13.599 2°56.095 124.5 -999 22 7.5
2006-03-07 08:23:38 51°13.598 2°56.095 124.5 -999 60 -999
2006-03-07 08:23:43 51°13.598 2°56.095 124.5 -999 38 7.4
2006-03-07 08:23:48 51°13.598 2°56.095 124.5 -999 192 7.4
2006-03-07 08:23:53 51°13.598 2°56.096 124.5 -999 175 7.4
2006-03-07 08:23:58 51°13.598 2°56.095 124.5 -999 354 7.3
2006-03-07 08:24:03 51°13.598 2°56.096 124.5 -999 192 7.3
2006-03-07 08:24:08 51°13.599 2°56.096 124.5 -999 34 7.3
2006-03-07 08:24:12 51°13.599 2°56.095 124.5 -999 148 7.3
2006-03-07 08:24:18 51°13.599 2°56.096 124.5 0.1 199 7.5
2006-03-07 08:24:23 51°13.599 2°56.096 124.5 -999 93 7.5
2006-03-07 08:24:28 51°13.599 2°56.095 124.5 -999 148 7.4
2006-03-07 08:24:33 51°13.599 2°56.095 124.5 -999 213 7.5
2006-03-07 08:24:38 51°13.599 2°56.095 124.5 -999 27 7.3
2006-03-07 08:24:43 51°13.598 2°56.095 124.5 -999 143 7.3
2006-03-07 08:24:48 51°13.599 2°56.095 124.5 -999 217 7.4
2006-03-07 08:24:53 51°13.599 2°56.095 124.5 -999 352 7.4
2006-03-07 08:24:58 51°13.599 2°56.095 124.5 -999 31 5.5
2006-03-07 08:25:03 51°13.599 2°56.095 124.5 -999 41 7.4
2006-03-07 08:25:08 51°13.599 2°56.095 124.5 -999 344 7.3
2006-03-07 08:25:13 51°13.599 2°56.096 124.4 -999 338 7.4
2006-03-07 08:25:18 51°13.599 2°56.096 124.4 -999 212 7.4
2006-03-07 08:25:23 51°13.6 2°56.096 124.4 -999 105 7.3
2006-03-07 08:25:28 51°13.6 2°56.096 124.4 -999 306 5.5
2006-03-07 08:25:32 51°13.6 2°56.096 124.4 -999 51 7.4
2006-03-07 08:25:38 51°13.6 2°56.096 124.4 -999 191 7.4
2006-03-07 08:25:43 51°13.6 2°56.096 124.3 -999 185 7.4
2006-03-07 08:25:48 51°13.6 2°56.096 124.3 -999 159 7.4
2006-03-07 08:25:53 51°13.6 2°56.096 124.3 -999 5 5.5
2006-03-07 08:25:58 51°13.6 2°56.096 124.3 -999 85 7.3
2006-03-07 08:26:03 51°13.6 2°56.096 124.3 -999 72 7.3
2006-03-07 08:26:08 51°13.6 2°56.096 124.3 -999 43 7.4
2006-03-07 08:26:13 51°13.6 2°56.096 124.2 -999 196 7.3
2006-03-07 08:26:18 51°13.6 2°56.096 124.2 -999 111 5.5
2006-03-07 08:26:23 51°13.6 2°56.096 124.2 -999 111 7.3
2006-03-07 08:26:28 51°13.6 2°56.096 124.2 -999 352 -999
2006-03-07 08:26:33 51°13.6 2°56.096 124.1 -999 6 7.3
2006-03-07 08:26:38 51°13.6 2°56.096 124.1 -999 152 7.3
2006-03-07 08:26:43 51°13.6 2°56.095 124.1 -999 339 7.4
2006-03-07 08:26:48 51°13.599 2°56.095 124.1 -999 224 7.4
2006-03-07 08:26:53 51°13.599 2°56.095 124.1 -999 127 -999
2006-03-07 08:26:58 51°13.599 2°56.095 124.1 -999 43 7.3
2006-03-07 08:27:03 51°13.6 2°56.095 124.1 -999 16 7.4
2006-03-07 08:27:08 51°13.6 2°56.095 124.1 -999 16 7.4
2006-03-07 08:27:13 51°13.6 2°56.095 124.1 -999 18 7.3
2006-03-07 08:27:18 51°13.6 2°56.095 124.1 -999 77 5.5
2006-03-07 08:27:23 51°13.6 2°56.095 124.1 -999 335 7.3
2006-03-07 08:27:28 51°13.601 2°56.096 124.1 -999 335 7.3
2006-03-07 08:27:33 51°13.601 2°56.096 124.1 -999 340 7.3
2006-03-07 08:27:38 51°13.601 2°56.096 124.1 -999 20 7.2
2006-03-07 08:27:43 51°13.601 2°56.096 124.1 -999 98 5.5
2006-03-07 08:27:48 51°13.601 2°56.096 124.1 -999 78 7.2
2006-03-07 08:27:53 51°13.602 2°56.096 124.1 -999 337 7.2
2006-03-07 08:27:58 51°13.602 2°56.096 124.1 -999 337 7.2
2006-03-07 08:28:03 51°13.602 2°56.096 124.1 -999 128 7.3
2006-03-07 08:28:08 51°13.602 2°56.096 124.1 -999 128 7.2
2006-03-07 08:28:13 51°13.602 2°56.096 124.1 -999 23 7.3
2006-03-07 08:28:18 51°13.602 2°56.096 124 -999 5 7.3
2006-03-07 08:28:23 51°13.602 2°56.096 124 -999 341 7.2
2006-03-07 08:28:28 51°13.602 2°56.096 124 -999 52 7.2
2006-03-07 08:28:33 51°13.602 2°56.096 124 -999 89 7.2
2006-03-07 08:28:38 51°13.6 2°56.095 124 -999 270 7.2
2006-03-07 08:28:43 51°13.6 2°56.094 124 -999 199 5.5
2006-03-07 08:28:48 51°13.599 2°56.094 124 -999 182 7.2
2006-03-07 08:28:52 51°13.599 2°56.094 124 -999 37 7.2
2006-03-07 08:28:58 51°13.6 2°56.094 124 -999 37 7.2
2006-03-07 08:29:03 51°13.6 2°56.094 124 -999 352 7.2
2006-03-07 08:29:08 51°13.6 2°56.094 124 -999 24 5.4
2006-03-07 08:29:12 51°13.6 2°56.094 124 -999 6 7.2
2006-03-07 08:29:18 51°13.601 2°56.094 124 -999 3 7.2
2006-03-07 08:29:23 51°13.601 2°56.094 124 -999 24 7.2
2006-03-07 08:29:28 51°13.601 2°56.094 124 -999 320 7.2
2006-03-07 08:29:32 51°13.601 2°56.095 124 -999 98 5.5
2006-03-07 08:29:38 51°13.601 2°56.095 124 -999 108 7.2
2006-03-07 08:29:43 51°13.601 2°56.095 124 -999 338 5.5
2006-03-07 08:29:48 51°13.601 2°56.095 124 -999 343 7.2
2006-03-07 08:29:53 51°13.601 2°56.095 124 -999 343 7.2
2006-03-07 08:29:58 51°13.601 2°56.095 124 -999 342 7.2
2006-03-07 08:30:03 51°13.601 2°56.095 124 -999 354 7.2
2006-03-07 08:30:08 51°13.601 2°56.094 124 -999 315 7.2
2006-03-07 08:30:13 51°13.601 2°56.095 124 -999 219 7.2
2006-03-07 08:30:18 51°13.601 2°56.095 124 -999 44 5.5
2006-03-07 08:30:23 51°13.601 2°56.095 124 -999 60 7.2
2006-03-07 08:30:28 51°13.6 2°56.095 124 -999 38 -999
2006-03-07 08:30:33 51°13.6 2°56.094 124 -999 339 7.2
2006-03-07 08:30:38 51°13.6 2°56.094 124 -999 245 7.2
2006-03-07 08:30:43 51°13.6 2°56.095 124 -999 7 7.2
2006-03-07 08:30:48 51°13.6 2°56.095 123.9 -999 -999 7.2
2006-03-07 08:30:53 51°13.6 2°56.095 123.9 -999 92 5.5
2006-03-07 08:30:58 51°13.6 2°56.095 123.9 -999 57 7.2
2006-03-07 08:31:03 51°13.6 2°56.095 123.9 -999 80 7.3
2006-03-07 08:31:08 51°13.6 2°56.095 123.9 -999 246 7.2
2006-03-07 08:31:12 51°13.6 2°56.095 123.8 -999 116 7.3
2006-03-07 08:31:17 51°13.6 2°56.095 123.8 -999 109 7.3
2006-03-07 08:31:23 51°13.6 2°56.095 123.8 -999 21 7.3
2006-03-07 08:31:28 51°13.6 2°56.095 123.8 -999 37 7.2
2006-03-07 08:31:33 51°13.6 2°56.095 123.8 -999 56 7.2
2006-03-07 08:31:38 51°13.6 2°56.095 123.8 -999 329 5.5
2006-03-07 08:31:43 51°13.6 2°56.095 123.8 -999 90 7.2
2006-03-07 08:31:48 51°13.6 2°56.095 123.8 -999 48 7.2
2006-03-07 08:31:53 51°13.6 2°56.095 123.8 0.1 185 7.3
2006-03-07 08:31:58 51°13.599 2°56.094 123.8 -999 200 7.2
2006-03-07 08:32:03 51°13.599 2°56.094 123.8 -999 218 7.3
2006-03-07 08:32:08 51°13.599 2°56.094 123.8 -999 75 7.3
2006-03-07 08:32:13 51°13.599 2°56.094 123.8 -999 353 7.2
2006-03-07 08:32:18 51°13.599 2°56.094 123.8 -999 339 7.2
2006-03-07 08:32:23 51°13.599 2°56.094 123.8 -999 267 7.2
2006-03-07 08:32:28 51°13.599 2°56.094 123.8 -999 249 7.2
2006-03-07 08:32:33 51°13.6 2°56.094 123.8 -999 220 7.2
2006-03-07 08:32:38 51°13.6 2°56.094 123.8 -999 217 7.4
2006-03-07 08:32:43 51°13.6 2°56.094 123.8 -999 69 5.5
2006-03-07 08:32:48 51°13.6 2°56.094 123.9 -999 137 7.2
2006-03-07 08:32:53 51°13.6 2°56.094 123.9 -999 115 5.5
2006-03-07 08:32:58 51°13.6 2°56.094 123.9 -999 110 7.3
2006-03-07 08:33:03 51°13.6 2°56.094 123.9 -999 110 7.3
2006-03-07 08:33:08 51°13.6 2°56.094 124 -999 65 7.3
2006-03-07 08:33:13 51°13.6 2°56.094 124.2 -999 348 7.3
2006-03-07 08:33:18 51°13.6 2°56.094 124.2 -999 3 7.2
2006-03-07 08:33:23 51°13.6 2°56.094 124.2 -999 52 7.2
2006-03-07 08:33:28 51°13.6 2°56.094 124.2 -999 50 5.5
2006-03-07 08:33:32 51°13.6 2°56.094 124.3 -999 271 7.2
2006-03-07 08:33:37 51°13.6 2°56.094 124.3 -999 171 5.5
2006-03-07 08:33:43 51°13.6 2°56.094 124.3 -999 251 7.2
2006-03-07 08:33:48 51°13.6 2°56.094 124.3 -999 265 -999
2006-03-07 08:33:53 51°13.6 2°56.094 124.2 -999 119 7.2
2006-03-07 08:33:58 51°13.6 2°56.094 124.2 -999 37 7.3
2006-03-07 08:34:03 51°13.6 2°56.095 124.2 -999 20 7.2
2006-03-07 08:34:08 51°13.599 2°56.094 124.2 -999 28 7.2
2006-03-07 08:34:13 51°13.599 2°56.094 124.2 -999 28 7.3
2006-03-07 08:34:18 51°13.599 2°56.094 124.2 -999 9 7.3
2006-03-07 08:34:23 51°13.599 2°56.094 124.2 -999 62 5.4
2006-03-07 08:34:28 51°13.599 2°56.094 124.2 -999 82 7.2
2006-03-07 08:34:33 51°13.599 2°56.094 124.2 -999 143 7.2
2006-03-07 08:34:38 51°13.599 2°56.094 124.1 -999 -999 7.2
2006-03-07 08:34:43 51°13.599 2°56.095 124.1 -999 12 7.2
2006-03-07 08:34:48 51°13.599 2°56.095 124.1 -999 356 7.2
2006-03-07 08:34:52 51°13.599 2°56.095 124.1 -999 295 7.2
2006-03-07 08:34:58 51°13.599 2°56.095 124.1 -999 295 7.2
2006-03-07 08:35:03 51°13.599 2°56.095 124.1 -999 295 7.2
2006-03-07 08:35:08 51°13.599 2°56.095 124.1 -999 75 7.2
2006-03-07 08:35:12 51°13.599 2°56.095 124.1 -999 85 7.2
2006-03-07 08:35:18 51°13.599 2°56.095 124.2 -999 85 7.2
2006-03-07 08:35:23 51°13.599 2°56.095 124.2 -999 85 7.3
2006-03-07 08:35:28 51°13.599 2°56.095 124.2 -999 135 7.3
2006-03-07 08:35:32 51°13.598 2°56.095 124.2 -999 175 7.2
2006-03-07 08:35:38 51°13.598 2°56.095 124.2 -999 175 7.2
2006-03-07 08:35:43 51°13.598 2°56.095 124.2 -999 175 7.2
2006-03-07 08:35:48 51°13.598 2°56.095 124.1 -999 355 7.2
2006-03-07 08:35:52 51°13.598 2°56.095 124.1 -999 272 5.4
2006-03-07 08:35:57 51°13.598 2°56.095 124.1 -999 239 7.1
2006-03-07 08:36:03 51°13.598 2°56.095 124.1 -999 198 5.4
2006-03-07 08:36:08 51°13.598 2°56.095 124.1 -999 198 7.2
2006-03-07 08:36:13 51°13.598 2°56.095 124.1 -999 273 7.2
2006-03-07 08:36:18 51°13.598 2°56.095 124.1 -999 212 7.2
2006-03-07 08:36:23 51°13.598 2°56.095 124.1 -999 122 7.1
2006-03-07 08:36:27 51°13.598 2°56.095 124.1 -999 134 7.1
2006-03-07 08:36:33 51°13.598 2°56.095 124.1 -999 120 5.4
2006-03-07 08:36:38 51°13.598 2°56.095 124.1 -999 84 7.2
2006-03-07 08:36:43 51°13.598 2°56.095 124.1 -999 90 5.4
2006-03-07 08:36:48 51°13.598 2°56.095 124.1 -999 16 7.2
2006-03-07 08:36:53 51°13.599 2°56.095 124.1 -999 60 7.2
2006-03-07 08:36:58 51°13.599 2°56.095 124.2 -999 283 7.3
2006-03-07 08:37:03 51°13.599 2°56.095 124.2 -999 66 7.3
2006-03-07 08:37:08 51°13.599 2°56.096 124.2 -999 140 7.2
2006-03-07 08:37:13 51°13.599 2°56.096 124.2 -999 119 7.2
2006-03-07 08:37:18 51°13.599 2°56.096 124.2 -999 157 7.1
2006-03-07 08:37:23 51°13.599 2°56.096 124.2 -999 88 7.2
2006-03-07 08:37:28 51°13.599 2°56.096 124.2 -999 213 -999
2006-03-07 08:37:33 51°13.599 2°56.096 124.2 -999 164 7.1
2006-03-07 08:37:38 51°13.599 2°56.096 124.2 -999 121 7.1
2006-03-07 08:37:43 51°13.599 2°56.096 124.3 -999 205 7.2
2006-03-07 08:37:48 51°13.599 2°56.096 124.3 -999 205 7.1
2006-03-07 08:37:53 51°13.599 2°56.096 124.3 -999 335 7.2
2006-03-07 08:37:58 51°13.599 2°56.096 124.3 -999 35 7.2
2006-03-07 08:38:03 51°13.6 2°56.096 124.3 -999 52 7.1
2006-03-07 08:38:08 51°13.6 2°56.096 124.3 -999 350 7.2
2006-03-07 08:38:13 51°13.6 2°56.096 124.3 -999 350 7.2
2006-03-07 08:38:18 51°13.6 2°56.095 124.3 -999 213 7.2
2006-03-07 08:38:23 51°13.6 2°56.095 124.3 -999 65 5.4
2006-03-07 08:38:28 51°13.6 2°56.095 124.3 -999 317 7.1
2006-03-07 08:38:33 51°13.6 2°56.095 124.2 -999 33 7.1
2006-03-07 08:38:38 51°13.6 2°56.095 124.2 -999 54 7.1
2006-03-07 08:38:43 51°13.6 2°56.095 124.3 -999 302 7.1
2006-03-07 08:38:48 51°13.6 2°56.095 124.3 -999 356 7.2
2006-03-07 08:38:53 51°13.6 2°56.095 124.3 -999 356 7.2
2006-03-07 08:38:58 51°13.6 2°56.095 124.3 -999 92 7.1
2006-03-07 08:39:03 51°13.6 2°56.095 124.3 -999 208 7.2
2006-03-07 08:39:08 51°13.6 2°56.095 124.3 -999 55 7.1
2006-03-07 08:39:12 51°13.6 2°56.095 124.3 -999 228 7.2
2006-03-07 08:39:18 51°13.6 2°56.095 124.3 -999 249 7.2
2006-03-07 08:39:23 51°13.6 2°56.095 124.3 -999 73 7.2
2006-03-07 08:39:28 51°13.601 2°56.095 124.3 -999 281 7.2
2006-03-07 08:39:33 51°13.601 2°56.095 124.3 -999 281 7.2
2006-03-07 08:39:38 51°13.601 2°56.095 124.3 -999 69 7.2
2006-03-07 08:39:43 51°13.601 2°56.095 124.3 -999 58 7.2
2006-03-07 08:39:48 51°13.601 2°56.095 124.3 -999 58 7.2
2006-03-07 08:39:52 51°13.6 2°56.095 124.3 -999 191 7.1
2006-03-07 08:39:58 51°13.6 2°56.095 124.3 -999 220 7.2
2006-03-07 08:40:03 51°13.6 2°56.095 124.3 -999 209 5.4
2006-03-07 08:40:08 51°13.6 2°56.095 124.3 -999 161 7.1
2006-03-07 08:40:13 51°13.6 2°56.095 124.3 -999 168 7.1
2006-03-07 08:40:18 51°13.6 2°56.095 124.3 -999 247 7.1
2006-03-07 08:40:23 51°13.6 2°56.095 124.3 -999 47 7.1
2006-03-07 08:40:28 51°13.6 2°56.095 124.3 -999 227 7.1
2006-03-07 08:40:33 51°13.6 2°56.094 124.3 -999 183 7.1
2006-03-07 08:40:38 51°13.6 2°56.094 124.3 -999 255 7.1
2006-03-07 08:40:43 51°13.6 2°56.094 124.3 -999 358 7.1
2006-03-07 08:40:48 51°13.6 2°56.094 124.3 -999 285 7.2
2006-03-07 08:40:53 51°13.6 2°56.094 124.3 -999 272 7.2
2006-03-07 08:40:58 51°13.6 2°56.094 124.3 -999 284 7.2
2006-03-07 08:41:03 51°13.6 2°56.093 124.3 -999 218 7.1
2006-03-07 08:41:08 51°13.6 2°56.093 124.3 -999 230 7.2
2006-03-07 08:41:13 51°13.6 2°56.093 124.3 -999 36 7.2
2006-03-07 08:41:18 51°13.6 2°56.093 124.3 -999 29 7.2
2006-03-07 08:41:23 51°13.6 2°56.093 124.3 -999 34 5.4
2006-03-07 08:41:28 51°13.6 2°56.093 124.3 -999 34 7.2
2006-03-07 08:41:32 51°13.6 2°56.093 124.3 -999 146 7.2
2006-03-07 08:41:38 51°13.6 2°56.093 124.3 -999 146 7.2
2006-03-07 08:41:43 51°13.6 2°56.093 124.3 -999 44 7.1
2006-03-07 08:41:48 51°13.6 2°56.093 124.3 -999 169 7.1
2006-03-07 08:41:53 51°13.6 2°56.093 124.3 -999 72 7.1
2006-03-07 08:41:58 51°13.6 2°56.093 124.3 -999 312 7.1
2006-03-07 08:42:03 51°13.6 2°56.093 124.3 -999 250 7.2
2006-03-07 08:42:08 51°13.6 2°56.093 124.3 -999 16 7.1
2006-03-07 08:42:13 51°13.6 2°56.093 124.3 -999 62 7.2
2006-03-07 08:42:18 51°13.6 2°56.093 124.3 -999 312 7.1
2006-03-07 08:42:23 51°13.6 2°56.093 124.3 -999 255 7.2
2006-03-07 08:42:28 51°13.6 2°56.094 124.3 -999 255 7.1
2006-03-07 08:42:33 51°13.6 2°56.094 124.2 -999 272 7.1
2006-03-07 08:42:38 51°13.6 2°56.094 124.2 -999 240 7.1
2006-03-07 08:42:43 51°13.599 2°56.094 124.2 -999 218 7.1
2006-03-07 08:42:48 51°13.599 2°56.094 124.2 -999 216 7.1
2006-03-07 08:42:53 51°13.599 2°56.094 124.2 -999 129 7.1
2006-03-07 08:42:58 51°13.599 2°56.094 124.2 -999 9 7.1
2006-03-07 08:43:03 51°13.599 2°56.094 124.2 -999 331 7.1
2006-03-07 08:43:08 51°13.599 2°56.094 124.2 -999 327 7
2006-03-07 08:43:13 51°13.599 2°56.094 124.2 -999 351 7.1
2006-03-07 08:43:18 51°13.599 2°56.094 124.2 -999 316 7.1
2006-03-07 08:43:23 51°13.598 2°56.094 124.2 -999 14 7.1
2006-03-07 08:43:28 51°13.598 2°56.094 124.1 -999 150 7.1
2006-03-07 08:43:33 51°13.598 2°56.094 124.1 -999 77 7.1
2006-03-07 08:43:38 51°13.598 2°56.094 124.1 -999 211 7
2006-03-07 08:43:43 51°13.598 2°56.094 124.1 -999 23 7.1
2006-03-07 08:43:48 51°13.598 2°56.094 124.1 -999 215 7
2006-03-07 08:43:53 51°13.598 2°56.094 124.1 -999 164 7.1
2006-03-07 08:43:58 51°13.598 2°56.094 124.1 -999 218 7
2006-03-07 08:44:03 51°13.598 2°56.094 124.1 -999 253 7.1
2006-03-07 08:44:08 51°13.598 2°56.094 124.1 -999 331 7.1
2006-03-07 08:44:13 51°13.598 2°56.094 124.1 -999 1 7.1
2006-03-07 08:44:18 51°13.598 2°56.094 124.1 -999 350 7.1
2006-03-07 08:44:23 51°13.598 2°56.094 124 -999 93 7.1
2006-03-07 08:44:28 51°13.598 2°56.094 124 -999 106 7.1
2006-03-07 08:44:33 51°13.598 2°56.094 124 -999 27 7.1
2006-03-07 08:44:38 51°13.598 2°56.094 124 -999 106 7.1
2006-03-07 08:44:43 51°13.598 2°56.094 124 -999 75 7.1
2006-03-07 08:44:48 51°13.598 2°56.094 124 -999 64 7
2006-03-07 08:44:53 51°13.598 2°56.094 124 -999 215 7.1
2006-03-07 08:44:58 51°13.598 2°56.094 124 -999 143 7.1
2006-03-07 08:45:03 51°13.598 2°56.094 124 -999 66 7.1
2006-03-07 08:45:08 51°13.598 2°56.094 124 -999 42 7.1
2006-03-07 08:45:13 51°13.598 2°56.094 124 -999 29 7.1
2006-03-07 08:45:18 51°13.598 2°56.094 124 -999 285 7
2006-03-07 08:45:23 51°13.598 2°56.094 124 -999 154 7
2006-03-07 08:45:28 51°13.598 2°56.094 124 -999 324 7
2006-03-07 08:45:33 51°13.598 2°56.094 124 -999 150 7
2006-03-07 08:45:38 51°13.598 2°56.094 124 -999 69 7
2006-03-07 08:45:43 51°13.598 2°56.094 124 -999 199 7
2006-03-07 08:45:48 51°13.598 2°56.094 124 -999 34 7.1
2006-03-07 08:45:53 51°13.598 2°56.094 124 -999 340 7
2006-03-07 08:45:58 51°13.598 2°56.094 124 -999 325 7
2006-03-07 08:46:03 51°13.599 2°56.094 124 -999 205 7.1
2006-03-07 08:46:08 51°13.599 2°56.094 124 -999 205 7
2006-03-07 08:46:12 51°13.599 2°56.094 124 -999 221 7
2006-03-07 08:46:18 51°13.599 2°56.094 124 -999 144 7
2006-03-07 08:46:23 51°13.599 2°56.094 124 -999 144 7
2006-03-07 08:46:28 51°13.599 2°56.094 124.1 -999 30 7
2006-03-07 08:46:33 51°13.599 2°56.094 124.1 -999 86 7
2006-03-07 08:46:38 51°13.599 2°56.094 124.1 -999 74 7.1
2006-03-07 08:46:43 51°13.599 2°56.094 124.1 -999 185 7.1
2006-03-07 08:46:48 51°13.599 2°56.094 124.1 -999 131 7.1
2006-03-07 08:46:53 51°13.599 2°56.094 124.1 -999 113 7.1
2006-03-07 08:46:58 51°13.599 2°56.094 124.1 -999 351 7.1
2006-03-07 08:47:03 51°13.599 2°56.094 124.1 -999 95 7.1
2006-03-07 08:47:08 51°13.599 2°56.094 124.1 -999 95 7.1
2006-03-07 08:47:13 51°13.599 2°56.094 124.1 -999 95 7.1
2006-03-07 08:47:18 51°13.599 2°56.094 124.1 -999 219 7.1
2006-03-07 08:47:23 51°13.599 2°56.094 124.1 -999 219 7.1
2006-03-07 08:47:28 51°13.599 2°56.094 124.1 -999 236 7.1
2006-03-07 08:47:33 51°13.599 2°56.094 124.1 -999 205 7.1
2006-03-07 08:47:38 51°13.599 2°56.094 124.1 -999 346 7.1
2006-03-07 08:47:43 51°13.599 2°56.094 124.1 -999 42 7.1
2006-03-07 08:47:48 51°13.599 2°56.094 124.1 -999 101 7.1
2006-03-07 08:47:53 51°13.599 2°56.094 124.1 -999 342 7.1
2006-03-07 08:47:58 51°13.599 2°56.094 124.1 -999 233 7.1
2006-03-07 08:48:03 51°13.599 2°56.094 124.1 -999 111 7.1
2006-03-07 08:48:08 51°13.599 2°56.094 124.1 -999 111 7.1
2006-03-07 08:48:13 51°13.599 2°56.094 124.1 -999 111 7.1
2006-03-07 08:48:18 51°13.599 2°56.094 124.1 -999 86 7.1
2006-03-07 08:48:23 51°13.599 2°56.094 124.1 -999 86 7
2006-03-07 08:48:28 51°13.599 2°56.094 124.1 -999 202 7.1
2006-03-07 08:48:33 51°13.599 2°56.094 124.1 -999 136 7
2006-03-07 08:48:38 51°13.599 2°56.094 124.1 -999 6 7
2006-03-07 08:48:43 51°13.599 2°56.094 124.1 -999 3 7
2006-03-07 08:48:48 51°13.599 2°56.094 124.1 -999 7 7
2006-03-07 08:48:53 51°13.599 2°56.094 124.1 -999 79 7
2006-03-07 08:48:58 51°13.599 2°56.095 124.1 -999 215 7
2006-03-07 08:49:03 51°13.599 2°56.095 124.1 -999 53 7
2006-03-07 08:49:08 51°13.598 2°56.095 124.1 -999 53 7
2006-03-07 08:49:12 51°13.598 2°56.095 124.1 -999 230 7
2006-03-07 08:49:18 51°13.598 2°56.095 124.1 -999 201 7
2006-03-07 08:49:23 51°13.598 2°56.095 124.1 -999 201 7
2006-03-07 08:49:28 51°13.598 2°56.095 124.1 -999 203 7
2006-03-07 08:49:33 51°13.598 2°56.095 124.1 -999 182 7
2006-03-07 08:49:38 51°13.598 2°56.095 124.1 -999 81 7
2006-03-07 08:49:43 51°13.598 2°56.095 124.1 -999 63 7
2006-03-07 08:49:48 51°13.598 2°56.095 124.2 -999 275 7
2006-03-07 08:49:53 51°13.597 2°56.095 124.2 -999 234 7.1
2006-03-07 08:49:58 51°13.597 2°56.095 124.2 -999 81 7
2006-03-07 08:50:03 51°13.597 2°56.095 124.2 -999 88 7
2006-03-07 08:50:08 51°13.597 2°56.095 124.2 -999 340 7
2006-03-07 08:50:13 51°13.597 2°56.095 124.2 -999 18 7
2006-03-07 08:50:18 51°13.597 2°56.095 124.2 -999 1 7
2006-03-07 08:50:23 51°13.597 2°56.095 124.2 -999 332 7
2006-03-07 08:50:28 51°13.598 2°56.095 124.2 -999 33 7
2006-03-07 08:50:32 51°13.598 2°56.095 124.2 -999 277 7
2006-03-07 08:50:38 51°13.597 2°56.094 124.2 -999 270 7
2006-03-07 08:50:43 51°13.597 2°56.094 124.2 -999 289 7
2006-03-07 08:50:48 51°13.597 2°56.094 124.2 -999 56 7
2006-03-07 08:50:52 51°13.597 2°56.094 124.3 -999 16 7
2006-03-07 08:50:58 51°13.597 2°56.094 124.3 -999 16 7
2006-03-07 08:51:03 51°13.597 2°56.094 124.3 -999 56 7
2006-03-07 08:51:08 51°13.597 2°56.094 124.3 -999 95 7
2006-03-07 08:51:12 51°13.597 2°56.094 124.3 -999 83 7
2006-03-07 08:51:18 51°13.597 2°56.094 124.3 -999 83 7
2006-03-07 08:51:23 51°13.597 2°56.094 124.3 -999 82 7
2006-03-07 08:51:28 51°13.597 2°56.094 124.3 -999 105 7
2006-03-07 08:51:33 51°13.597 2°56.094 124.3 -999 59 7
2006-03-07 08:51:38 51°13.597 2°56.094 124.3 -999 65 7
2006-03-07 08:51:43 51°13.597 2°56.094 124.3 -999 36 7
2006-03-07 08:51:48 51°13.597 2°56.094 124.2 -999 36 7
2006-03-07 08:51:52 51°13.597 2°56.094 124.2 -999 24 7
2006-03-07 08:51:58 51°13.597 2°56.094 124.2 -999 24 7
2006-03-07 08:52:03 51°13.597 2°56.093 124.2 -999 293 7
2006-03-07 08:52:08 51°13.597 2°56.093 124.2 -999 290 7
2006-03-07 08:52:13 51°13.597 2°56.094 124.2 -999 47 7
2006-03-07 08:52:18 51°13.597 2°56.093 124.2 -999 58 7
2006-03-07 08:52:23 51°13.597 2°56.093 124.2 -999 348 7
2006-03-07 08:52:28 51°13.597 2°56.093 124.2 -999 224 7
2006-03-07 08:52:33 51°13.597 2°56.093 124.2 -999 335 7.1
2006-03-07 08:52:38 51°13.598 2°56.093 124.2 -999 294 7
2006-03-07 08:52:43 51°13.598 2°56.093 124.2 -999 345 7
2006-03-07 08:52:48 51°13.598 2°56.094 124.2 -999 211 7
2006-03-07 08:52:53 51°13.598 2°56.094 124.2 -999 92 7
2006-03-07 08:52:58 51°13.598 2°56.094 124.2 -999 116 7
2006-03-07 08:53:03 51°13.598 2°56.094 124.3 -999 316 7
2006-03-07 08:53:07 51°13.598 2°56.094 124.3 -999 284 7
2006-03-07 08:53:13 51°13.598 2°56.094 124.3 -999 306 7
2006-03-07 08:53:18 51°13.598 2°56.093 124.3 -999 306 7
2006-03-07 08:53:23 51°13.598 2°56.093 124.2 -999 16 7
2006-03-07 08:53:28 51°13.598 2°56.094 124.2 -999 285 7
2006-03-07 08:53:33 51°13.598 2°56.093 124.2 -999 337 7
2006-03-07 08:53:38 51°13.598 2°56.094 124.2 -999 244 7
2006-03-07 08:53:43 51°13.598 2°56.094 124.2 -999 75 7.1
2006-03-07 08:53:48 51°13.598 2°56.094 124.2 -999 99 7
2006-03-07 08:53:52 51°13.598 2°56.094 124.2 -999 356 7
2006-03-07 08:53:58 51°13.598 2°56.094 124.2 -999 309 7
2006-03-07 08:54:03 51°13.598 2°56.094 124.2 -999 68 7.1
2006-03-07 08:54:08 51°13.598 2°56.094 124.2 -999 293 7
2006-03-07 08:54:12 51°13.598 2°56.094 124.2 -999 293 7
2006-03-07 08:54:18 51°13.598 2°56.094 124.2 -999 89 7
2006-03-07 08:54:23 51°13.598 2°56.094 124.2 -999 89 7
2006-03-07 08:54:28 51°13.598 2°56.094 124.2 -999 326 7
2006-03-07 08:54:33 51°13.598 2°56.094 124.2 -999 326 7
2006-03-07 08:54:38 51°13.598 2°56.094 124.2 -999 302 7
2006-03-07 08:54:43 51°13.598 2°56.094 124.2 -999 53 7
2006-03-07 08:54:48 51°13.597 2°56.094 124.2 -999 88 7
2006-03-07 08:54:53 51°13.597 2°56.094 124.2 -999 223 6.9
2006-03-07 08:54:58 51°13.597 2°56.094 124.2 -999 334 7
2006-03-07 08:55:03 51°13.597 2°56.094 124.2 -999 294 7
2006-03-07 08:55:08 51°13.597 2°56.094 124.2 -999 294 6.9
2006-03-07 08:55:12 51°13.597 2°56.094 124.2 -999 349 6.9
2006-03-07 08:55:18 51°13.597 2°56.094 124.2 -999 349 6.9
2006-03-07 08:55:23 51°13.597 2°56.094 124.2 -999 341 6.9
2006-03-07 08:55:28 51°13.597 2°56.094 124.2 -999 9 6.9
2006-03-07 08:55:32 51°13.597 2°56.094 124.2 -999 62 6.9
2006-03-07 08:55:38 51°13.597 2°56.094 124.2 -999 190 6.9
2006-03-07 08:55:43 51°13.597 2°56.094 124.2 -999 21 6.9
2006-03-07 08:55:48 51°13.596 2°56.094 124.2 -999 275 6.9
2006-03-07 08:55:53 51°13.596 2°56.094 124.2 -999 276 6.9
2006-03-07 08:55:58 51°13.596 2°56.094 124.2 -999 156 6.9
2006-03-07 08:56:03 51°13.596 2°56.094 124.2 -999 142 6.9
2006-03-07 08:56:08 51°13.596 2°56.094 124.2 -999 248 6.9
2006-03-07 08:56:13 51°13.596 2°56.094 124.2 -999 311 6.9
2006-03-07 08:56:18 51°13.596 2°56.094 124.2 -999 278 6.9
2006-03-07 08:56:23 51°13.597 2°56.095 124.2 -999 40 6.9
2006-03-07 08:56:28 51°13.597 2°56.095 124.2 -999 207 6.9
2006-03-07 08:56:33 51°13.597 2°56.095 124.2 -999 355 6.9
2006-03-07 08:56:38 51°13.597 2°56.095 124.2 -999 313 6.9
2006-03-07 08:56:43 51°13.597 2°56.095 124.2 -999 78 6.9
2006-03-07 08:56:48 51°13.597 2°56.095 124.2 -999 44 6.9
2006-03-07 08:56:52 51°13.597 2°56.095 124.2 -999 46 6.9
2006-03-07 08:56:58 51°13.597 2°56.095 124.2 -999 299 6.9
2006-03-07 08:57:03 51°13.597 2°56.095 124.2 -999 264 6.9
2006-03-07 08:57:08 51°13.597 2°56.095 124.2 -999 286 6.9
2006-03-07 08:57:13 51°13.597 2°56.095 124.2 -999 245 6.9
2006-03-07 08:57:18 51°13.597 2°56.095 124.2 -999 245 6.9
2006-03-07 08:57:23 51°13.597 2°56.095 124.2 -999 339 6.9
2006-03-07 08:57:28 51°13.597 2°56.095 124.2 -999 275 6.9
2006-03-07 08:57:33 51°13.597 2°56.095 124.2 -999 334 6.9
2006-03-07 08:57:38 51°13.597 2°56.095 124.2 -999 208 6.9
2006-03-07 08:57:43 51°13.597 2°56.095 124.3 -999 16 6.9
2006-03-07 08:57:48 51°13.597 2°56.095 124.3 -999 41 6.9
2006-03-07 08:57:52 51°13.597 2°56.095 124.3 -999 85 6.9
2006-03-07 08:57:58 51°13.597 2°56.095 124.3 -999 252 6.9
2006-03-07 08:58:03 51°13.597 2°56.095 124.3 -999 43 6.9
2006-03-07 08:58:08 51°13.597 2°56.095 124.3 -999 133 6.9
2006-03-07 08:58:13 51°13.597 2°56.095 124.3 -999 197 6.9
2006-03-07 08:58:19 51°13.597 2°56.095 124.3 -999 93 6.9
2006-03-07 08:58:23 51°13.597 2°56.095 124.3 -999 190 6.9
2006-03-07 08:58:28 51°13.598 2°56.095 124.3 -999 242 6.9
2006-03-07 08:58:33 51°13.598 2°56.095 124.3 -999 46 6.9
2006-03-07 08:58:38 51°13.598 2°56.095 124.3 -999 36 6.9
2006-03-07 08:58:43 51°13.598 2°56.095 124.3 -999 299 6.9
2006-03-07 08:58:48 51°13.598 2°56.095 124.4 -999 333 6.9
2006-03-07 08:58:53 51°13.598 2°56.095 124.4 -999 50 6.9
2006-03-07 08:58:58 51°13.598 2°56.095 124.4 -999 181 6.9
2006-03-07 08:59:03 51°13.598 2°56.095 124.4 -999 262 6.9
2006-03-07 08:59:08 51°13.598 2°56.095 124.5 -999 215 6.9
2006-03-07 08:59:13 51°13.598 2°56.095 124.5 -999 314 6.9
2006-03-07 08:59:18 51°13.598 2°56.095 124.5 -999 358 6.9
2006-03-07 08:59:23 51°13.598 2°56.095 124.5 -999 352 6.8
2006-03-07 08:59:28 51°13.598 2°56.095 124.5 -999 280 6.9
2006-03-07 08:59:33 51°13.598 2°56.095 124.5 -999 52 6.9
2006-03-07 08:59:38 51°13.598 2°56.095 124.5 -999 27 6.9
2006-03-07 08:59:43 51°13.598 2°56.095 124.5 -999 7 6.9
2006-03-07 08:59:48 51°13.598 2°56.095 124.5 -999 202 6.9
2006-03-07 08:59:53 51°13.598 2°56.095 124.5 0.1 195 6.8
2006-03-07 08:59:58 51°13.598 2°56.095 124.5 -999 59 7
2006-03-07 09:00:03 51°13.598 2°56.095 124.6 -999 166 6.9
2006-03-07 09:00:08 51°13.598 2°56.095 124.6 -999 213 6.9
2006-03-07 09:00:13 51°13.598 2°56.095 124.7 -999 75 6.9
2006-03-07 09:00:18 51°13.598 2°56.095 124.7 -999 22 6.9
2006-03-07 09:00:23 51°13.597 2°56.095 124.7 -999 87 6.9
2006-03-07 09:00:28 51°13.597 2°56.095 124.6 -999 100 6.9
2006-03-07 09:00:33 51°13.597 2°56.095 124.6 -999 84 6.9
2006-03-07 09:00:38 51°13.597 2°56.095 124.6 -999 66 6.9
2006-03-07 09:00:43 51°13.597 2°56.095 124.6 -999 70 6.9
2006-03-07 09:00:48 51°13.597 2°56.095 124.6 -999 269 6.9
2006-03-07 09:00:53 51°13.597 2°56.095 124.6 -999 168 6.9
2006-03-07 09:00:58 51°13.597 2°56.095 124.6 -999 124 6.9
2006-03-07 09:01:03 51°13.597 2°56.095 124.6 -999 72 6.9
2006-03-07 09:01:08 51°13.597 2°56.095 124.6 -999 288 6.9
2006-03-07 09:01:12 51°13.597 2°56.095 124.6 -999 222 6.9
2006-03-07 09:01:18 51°13.597 2°56.095 124.6 -999 72 6.8
2006-03-07 09:01:23 51°13.597 2°56.095 124.6 -999 292 6.8
2006-03-07 09:01:28 51°13.597 2°56.095 124.6 -999 45 6.8
2006-03-07 09:01:33 51°13.597 2°56.095 124.6 -999 289 6.8
2006-03-07 09:01:38 51°13.597 2°56.095 124.6 -999 289 6.8
2006-03-07 09:01:43 51°13.597 2°56.094 124.6 -999 240 6.8
2006-03-07 09:01:48 51°13.597 2°56.094 124.6 -999 267 6.9
2006-03-07 09:01:53 51°13.597 2°56.094 124.6 -999 353 6.8
2006-03-07 09:01:58 51°13.597 2°56.093 124.6 -999 34 6.9
2006-03-07 09:02:03 51°13.597 2°56.094 124.6 -999 354 6.9
2006-03-07 09:02:08 51°13.597 2°56.094 124.6 -999 214 6.8
2006-03-07 09:02:13 51°13.597 2°56.094 124.6 -999 37 6.8
2006-03-07 09:02:18 51°13.597 2°56.094 124.6 -999 35 6.8
2006-03-07 09:02:23 51°13.597 2°56.094 124.6 -999 307 6.9
2006-03-07 09:02:28 51°13.597 2°56.094 124.6 -999 275 6.8
2006-03-07 09:02:33 51°13.597 2°56.094 124.6 -999 31 6.9
2006-03-07 09:02:38 51°13.597 2°56.094 124.6 -999 37 6.8
2006-03-07 09:02:43 51°13.597 2°56.094 124.6 -999 222 6.8
2006-03-07 09:02:48 51°13.597 2°56.094 124.7 -999 251 6.8
2006-03-07 09:02:52 51°13.597 2°56.094 124.7 -999 10 6.8
2006-03-07 09:02:58 51°13.597 2°56.094 124.7 -999 284 6.8
2006-03-07 09:03:03 51°13.597 2°56.094 124.7 -999 191 6.8
2006-03-07 09:03:08 51°13.597 2°56.094 124.7 -999 15 6.8
2006-03-07 09:03:12 51°13.597 2°56.094 124.7 -999 19 6.8
2006-03-07 09:03:18 51°13.597 2°56.094 124.7 -999 19 6.8
2006-03-07 09:03:23 51°13.597 2°56.094 124.7 -999 2 6.8
2006-03-07 09:03:28 51°13.597 2°56.094 124.7 -999 28 6.8
2006-03-07 09:03:33 51°13.597 2°56.094 124.7 -999 28 6.8
2006-03-07 09:03:38 51°13.597 2°56.094 124.7 -999 198 6.8
2006-03-07 09:03:43 51°13.597 2°56.094 124.7 -999 21 6.8
2006-03-07 09:03:48 51°13.597 2°56.094 124.7 -999 45 6.8
2006-03-07 09:03:52 51°13.597 2°56.094 124.7 -999 170 6.8
2006-03-07 09:03:58 51°13.597 2°56.094 124.7 -999 58 6.8
2006-03-07 09:04:03 51°13.597 2°56.094 124.7 -999 83 6.8
2006-03-07 09:04:08 51°13.597 2°56.094 124.7 -999 155 6.8
2006-03-07 09:04:13 51°13.597 2°56.094 124.7 -999 24 6.8
2006-03-07 09:04:18 51°13.597 2°56.094 124.7 -999 24 6.8
2006-03-07 09:04:23 51°13.597 2°56.094 124.7 -999 175 6.8
2006-03-07 09:04:28 51°13.597 2°56.094 124.7 -999 207 6.8
2006-03-07 09:04:33 51°13.597 2°56.094 124.7 -999 30 6.8
2006-03-07 09:04:38 51°13.597 2°56.094 124.7 -999 183 6.9
2006-03-07 09:04:43 51°13.597 2°56.094 124.7 -999 136 6.8
2006-03-07 09:04:48 51°13.597 2°56.094 124.8 -999 216 6.9
2006-03-07 09:04:53 51°13.597 2°56.094 124.8 -999 216 6.9
2006-03-07 09:04:58 51°13.597 2°56.094 124.8 -999 179 6.8
2006-03-07 09:05:04 51°13.597 2°56.094 124.8 -999 116 6.9
2006-03-07 09:05:08 51°13.597 2°56.094 125 -999 118 6.9
2006-03-07 09:05:13 51°13.596 2°56.094 125.3 -999 147 6.9
2006-03-07 09:05:18 51°13.597 2°56.094 125.5 -999 96 7
2006-03-07 09:05:23 51°13.597 2°56.094 125.7 -999 158 6.9
2006-03-07 09:05:28 51°13.597 2°56.094 125.7 -999 108 6.9
2006-03-07 09:05:33 51°13.597 2°56.094 125.3 -999 166 7
2006-03-07 09:05:38 51°13.596 2°56.094 124.4 -999 183 7
2006-03-07 09:05:43 51°13.596 2°56.094 123.6 0.1 196 7
2006-03-07 09:05:48 51°13.596 2°56.094 122.5 0.1 194 6.9
2006-03-07 09:05:52 51°13.596 2°56.094 121.5 -999 188 7
2006-03-07 09:05:58 51°13.596 2°56.094 120.5 0.1 191 7
2006-03-07 09:06:03 51°13.596 2°56.094 119.6 -999 166 7
2006-03-07 09:06:08 51°13.596 2°56.094 118.7 -999 175 7.4
2006-03-07 09:06:13 51°13.596 2°56.094 117.6 0.1 184 7.6
2006-03-07 09:06:18 51°13.596 2°56.094 116.5 0.1 191 7.6
2006-03-07 09:06:23 51°13.596 2°56.094 115.4 0.1 186 7.8
2006-03-07 09:06:28 51°13.596 2°56.094 114.3 0.1 181 7.9
2006-03-07 09:06:33 51°13.596 2°56.094 112.8 0.1 222 8.1
2006-03-07 09:06:38 51°13.596 2°56.094 111.7 0.2 273 8.2
2006-03-07 09:06:43 51°13.596 2°56.093 111 0.4 288 8.3
2006-03-07 09:06:48 51°13.596 2°56.091 110.4 0.4 288 8.4
2006-03-07 09:06:53 51°13.597 2°56.089 110.2 0.7 288 8.3
2006-03-07 09:06:58 51°13.597 2°56.087 109.8 0.9 289 8.7
2006-03-07 09:07:03 51°13.598 2°56.083 109.7 1.5 290 8.8
2006-03-07 09:07:08 51°13.599 2°56.08 109.7 1.7 290 8.8
2006-03-07 09:07:14 51°13.6 2°56.075 109.8 1.9 290 -999
2006-03-07 09:07:19 51°13.601 2°56.07 109.9 2.2 290 -999
2006-03-07 09:07:24 51°13.602 2°56.065 109.8 2.3 290 -999
2006-03-07 09:07:28 51°13.603 2°56.061 109.5 2.5 289 -999
2006-03-07 09:07:34 51°13.605 2°56.054 109.3 2.8 289 -999
2006-03-07 09:07:39 51°13.606 2°56.047 109 3 288 -999
2006-03-07 09:07:44 51°13.607 2°56.04 109 3.2 287 -999
2006-03-07 09:07:49 51°13.608 2°56.034 109.2 3.2 286 -999
2006-03-07 09:07:54 51°13.61 2°56.027 109.5 3.2 287 -999
2006-03-07 09:07:59 51°13.611 2°56.02 109.8 3.2 287 -999
2006-03-07 09:08:04 51°13.613 2°56.013 110.3 3.2 288 -999
2006-03-07 09:08:09 51°13.614 2°56.007 111.3 3.2 288 -999
2006-03-07 09:08:14 51°13.615 2°56 112.3 3.2 290 -999
2006-03-07 09:08:19 51°13.617 2°55.993 113.1 3.2 291 -999
2006-03-07 09:08:24 51°13.619 2°55.987 114 3.2 291 -999
2006-03-07 09:08:29 51°13.621 2°55.98 115.2 3.3 292 -999
2006-03-07 09:08:34 51°13.623 2°55.973 116 3.3 294 -999
2006-03-07 09:08:39 51°13.624 2°55.967 116.7 3.3 294 -999
2006-03-07 09:08:44 51°13.626 2°55.96 117.2 3.3 295 -999
2006-03-07 09:08:49 51°13.628 2°55.954 117.9 3.3 295 -999
2006-03-07 09:08:54 51°13.63 2°55.947 118.4 3.3 296 -999
2006-03-07 09:08:59 51°13.632 2°55.94 118.7 3.4 296 -999
2006-03-07 09:09:04 51°13.634 2°55.933 118.9 3.4 297 -999
2006-03-07 09:09:09 51°13.636 2°55.926 118.9 3.4 297 -999
2006-03-07 09:09:14 51°13.638 2°55.919 118.9 3.5 296 -999
2006-03-07 09:09:19 51°13.64 2°55.912 118.9 3.5 296 -999
2006-03-07 09:09:24 51°13.643 2°55.905 118.8 3.5 296 -999
2006-03-07 09:09:28 51°13.644 2°55.9 118.6 3.5 296 -999
2006-03-07 09:09:34 51°13.647 2°55.891 118.6 3.5 295 -999
2006-03-07 09:09:39 51°13.649 2°55.884 118.3 3.5 295 -999
2006-03-07 09:09:44 51°13.651 2°55.877 118.2 3.6 295 -999
2006-03-07 09:09:49 51°13.653 2°55.87 118.1 3.6 295 -999
2006-03-07 09:09:54 51°13.655 2°55.863 118 3.6 294 -999
2006-03-07 09:09:59 51°13.657 2°55.855 118 3.6 295 -999
2006-03-07 09:10:04 51°13.659 2°55.848 118 3.6 295 -999
2006-03-07 09:10:09 51°13.662 2°55.841 118 3.6 295 -999
2006-03-07 09:10:14 51°13.664 2°55.833 118.2 3.6 294 -999
2006-03-07 09:10:19 51°13.666 2°55.826 118.4 3.6 295 -999
2006-03-07 09:10:24 51°13.668 2°55.819 118.7 3.6 295 -999
2006-03-07 09:10:28 51°13.67 2°55.813 119 3.6 295 -999
2006-03-07 09:10:34 51°13.672 2°55.804 119 3.6 295 -999
2006-03-07 09:10:39 51°13.674 2°55.797 119 3.7 295 -999
2006-03-07 09:10:44 51°13.677 2°55.789 119 3.8 296 -999
2006-03-07 09:10:49 51°13.679 2°55.781 119 3.9 296 -999
2006-03-07 09:10:54 51°13.682 2°55.773 118.7 4.1 296 -999
2006-03-07 09:10:59 51°13.684 2°55.765 118.3 4.1 296 -999
2006-03-07 09:11:04 51°13.687 2°55.757 117.8 4 296 -999
2006-03-07 09:11:08 51°13.689 2°55.751 117.1 3.8 295 -999
2006-03-07 09:11:14 51°13.691 2°55.742 116.6 3.6 294 -999
2006-03-07 09:11:19 51°13.693 2°55.736 115.8 3.5 294 -999
2006-03-07 09:11:24 51°13.695 2°55.729 115.1 3.2 294 -999
2006-03-07 09:11:28 51°13.696 2°55.725 114.3 2.8 293 -999
2006-03-07 09:11:34 51°13.698 2°55.72 113.3 2.2 294 -999
2006-03-07 09:11:38 51°13.698 2°55.718 111 1.8 296 9.9
2006-03-07 09:11:43 51°13.699 2°55.717 108.5 0.8 302 4.7
2006-03-07 09:11:48 51°13.699 2°55.717 105.1 0.4 336 10
2006-03-07 09:11:53 51°13.7 2°55.718 99.6 0.4 336 10
2006-03-07 09:11:58 51°13.7 2°55.72 93.4 1 68 10
2006-03-07 09:12:03 51°13.701 2°55.723 87 1.2 66 10
2006-03-07 09:12:08 51°13.703 2°55.726 80.4 1.5 62 4.8
2006-03-07 09:12:12 51°13.704 2°55.729 72.5 1.9 58 10.1
2006-03-07 09:12:18 51°13.707 2°55.734 67.4 2.2 51 10.1
2006-03-07 09:12:23 51°13.709 2°55.738 60.9 2.5 45 10.2
2006-03-07 09:12:28 51°13.712 2°55.742 53 2.6 43 10.2
2006-03-07 09:12:33 51°13.716 2°55.745 47.8 2.9 33 10.2
2006-03-07 09:12:38 51°13.719 2°55.748 41.1 2.8 28 10.2
2006-03-07 09:12:43 51°13.722 2°55.75 35.1 2.7 23 10.2
2006-03-07 09:12:48 51°13.725 2°55.752 31.2 2.5 22 10.1
2006-03-07 09:12:53 51°13.727 2°55.753 28.5 2.2 18 10.1
2006-03-07 09:12:58 51°13.729 2°55.754 25.3 2.2 18 10.1
2006-03-07 09:13:03 51°13.73 2°55.754 21.2 1 4 10.1
2006-03-07 09:13:08 51°13.731 2°55.754 17.4 0.7 3 10.1
2006-03-07 09:13:12 51°13.731 2°55.754 14.5 0.2 327 10.1
2006-03-07 09:13:18 51°13.73 2°55.753 11.6 0.4 216 10
2006-03-07 09:13:23 51°13.729 2°55.752 10.2 0.6 204 10
2006-03-07 09:13:28 51°13.728 2°55.752 8.4 0.9 196 10.1
2006-03-07 09:13:34 51°13.725 2°55.751 6.5 1.4 188 -999
2006-03-07 09:13:39 51°13.723 2°55.751 5 1.6 188 -999
2006-03-07 09:13:44 51°13.721 2°55.75 3.7 1.5 186 -999
2006-03-07 09:13:48 51°13.72 2°55.75 2.9 1.2 188 -999
2006-03-07 09:13:53 51°13.719 2°55.749 2.3 0.8 193 -999
2006-03-07 09:13:59 51°13.718 2°55.749 1.2 0.3 218 -999
2006-03-07 09:14:04 51°13.719 2°55.748 358.5 0.6 325 -999
2006-03-07 09:14:09 51°13.721 2°55.747 353.8 1.3 339 -999
2006-03-07 09:14:14 51°13.724 2°55.745 347.5 2 334 -999
2006-03-07 09:14:19 51°13.728 2°55.742 341.3 2.6 335 -999
2006-03-07 09:14:24 51°13.732 2°55.738 336.2 3.6 329 -999
2006-03-07 09:14:29 51°13.738 2°55.732 333.4 4.6 328 -999
2006-03-07 09:14:34 51°13.744 2°55.725 332.2 5.3 326 -999
2006-03-07 09:14:38 51°13.75 2°55.719 332 5.3 326 10.1
2006-03-07 09:14:44 51°13.76 2°55.708 331.4 6.9 324 10
2006-03-07 09:14:48 51°13.768 2°55.701 331.4 7.3 326 10
2006-03-07 09:14:53 51°13.777 2°55.69 331.8 8.1 325 9.9
2006-03-07 09:14:58 51°13.788 2°55.68 332.2 8.5 326 9.8
2006-03-07 09:15:03 51°13.799 2°55.669 333.2 9.2 328 10
2006-03-07 09:15:08 51°13.811 2°55.659 334.4 9.6 330 10
2006-03-07 09:15:13 51°13.823 2°55.648 335.3 9.9 331 9.9
2006-03-07 09:15:18 51°13.835 2°55.637 336.1 10.1 332 9.9
2006-03-07 09:15:23 51°13.848 2°55.627 337.2 10.3 333 10
2006-03-07 09:15:28 51°13.861 2°55.617 338.5 10.2 334 9.9
2006-03-07 09:15:33 51°13.874 2°55.607 339.5 10.2 334 9.9
2006-03-07 09:15:38 51°13.886 2°55.598 340.1 10.1 335 10
2006-03-07 09:15:43 51°13.899 2°55.589 341.1 10.1 335 10
2006-03-07 09:15:48 51°13.911 2°55.579 341.1 10 335 10
2006-03-07 09:15:53 51°13.924 2°55.57 341.2 9.9 336 10
2006-03-07 09:15:58 51°13.937 2°55.561 341.6 9.9 335 10
2006-03-07 09:16:03 51°13.949 2°55.553 341.8 9.9 336 10
2006-03-07 09:16:08 51°13.962 2°55.544 342.2 9.8 336 10
2006-03-07 09:16:12 51°13.971 2°55.536 342 9.8 336 10.1
2006-03-07 09:16:18 51°13.986 2°55.526 342.3 9.8 336 10.1
2006-03-07 09:16:23 51°13.999 2°55.518 342.5 9.8 336 10.1
2006-03-07 09:16:28 51°14.011 2°55.509 342.2 9.7 336 10.1
2006-03-07 09:16:32 51°14.021 2°55.502 342.3 9.7 337 10.1
2006-03-07 09:16:38 51°14.036 2°55.491 342.3 9.7 336 10.1
2006-03-07 09:16:43 51°14.048 2°55.483 342 9.6 336 10.1
2006-03-07 09:16:48 51°14.06 2°55.474 342 9.6 336 10.1
2006-03-07 09:16:53 51°14.072 2°55.465 342 9.7 336 10.1
2006-03-07 09:16:58 51°14.085 2°55.456 341.6 9.7 335 10.1
2006-03-07 09:17:03 51°14.097 2°55.447 341.4 9.6 335 10.1
2006-03-07 09:17:08 51°14.109 2°55.438 341.4 9.6 335 10.1
2006-03-07 09:17:13 51°14.121 2°55.428 340 9.8 332 10.1
2006-03-07 09:17:18 51°14.133 2°55.417 338.9 9.9 332 10.1
2006-03-07 09:17:23 51°14.145 2°55.406 338.2 10 331 10.1
2006-03-07 09:17:28 51°14.157 2°55.395 336.9 10.2 329 10.1
2006-03-07 09:17:33 51°14.169 2°55.382 335.3 10.4 328 10
2006-03-07 09:17:38 51°14.181 2°55.369 333.8 10.5 326 10
2006-03-07 09:17:43 51°14.194 2°55.355 332.2 10.8 325 10
2006-03-07 09:17:48 51°14.206 2°55.34 330.4 10.9 323 10
2006-03-07 09:17:53 51°14.218 2°55.325 329.1 11.1 322 10
2006-03-07 09:17:58 51°14.23 2°55.309 328.2 11.2 321 9.9
2006-03-07 09:18:03 51°14.241 2°55.293 327.3 11.3 320 10
2006-03-07 09:18:08 51°14.253 2°55.275 325.8 11.3 318 9.9
2006-03-07 09:18:12 51°14.262 2°55.261 324.4 11.4 317 9.9
2006-03-07 09:18:18 51°14.276 2°55.239 323 11.6 314 9.9
2006-03-07 09:18:23 51°14.286 2°55.22 321 11.7 313 9.9
2006-03-07 09:18:28 51°14.298 2°55.2 319 11.8 311 9.9
2006-03-07 09:18:33 51°14.308 2°55.18 317.6 11.8 311 9.9
2006-03-07 09:18:38 51°14.319 2°55.16 316.3 11.8 311 9.9
2006-03-07 09:18:43 51°14.329 2°55.139 316.1 12.2 310 10.1
2006-03-07 09:18:48 51°14.34 2°55.118 315.7 12.2 309 9.9
2006-03-07 09:18:53 51°14.351 2°55.097 315.7 12.2 311 9.9
2006-03-07 09:18:58 51°14.363 2°55.077 317 12.3 311 9.9
2006-03-07 09:19:03 51°14.375 2°55.058 319.3 12.3 314 10
2006-03-07 09:19:08 51°14.387 2°55.039 321.4 12.5 315 10
2006-03-07 09:19:12 51°14.398 2°55.024 322.9 12.5 317 9.9
2006-03-07 09:19:18 51°14.414 2°55.002 325.2 12.6 319 9.9
2006-03-07 09:19:23 51°14.427 2°54.985 327.6 12.5 320 10
2006-03-07 09:19:28 51°14.44 2°54.968 329.4 12.4 320 9.9
2006-03-07 09:19:33 51°14.454 2°54.951 331 12.6 323 10.1
2006-03-07 09:19:38 51°14.467 2°54.936 333 11.8 323 9.7
2006-03-07 09:19:43 51°14.479 2°54.923 334.4 11.1 325 9.5
2006-03-07 09:19:48 51°14.49 2°54.911 335.7 10.3 325 9.4
2006-03-07 09:19:52 51°14.499 2°54.902 337.2 9.7 327 9.5
2006-03-07 09:19:58 51°14.511 2°54.891 339.1 8.7 329 9.7
2006-03-07 09:20:03 51°14.521 2°54.882 341.4 8.1 331 9.5
2006-03-07 09:20:08 51°14.531 2°54.876 344.3 7.4 335 9.5
2006-03-07 09:20:13 51°14.539 2°54.87 347.8 6.8 338 9.6
2006-03-07 09:20:18 51°14.547 2°54.866 351.2 6.7 339 9.6
2006-03-07 09:20:23 51°14.555 2°54.863 354.1 6 343 9.5
2006-03-07 09:20:28 51°14.563 2°54.86 357.2 5.6 347 9.6
2006-03-07 09:20:33 51°14.569 2°54.858 0.1 5.3 348 9.6
2006-03-07 09:20:38 51°14.576 2°54.857 2.8 4.9 352 9.5
2006-03-07 09:20:43 51°14.582 2°54.855 5.3 4.7 351 9.5
2006-03-07 09:20:48 51°14.588 2°54.854 7.6 4.4 355 9.5
2006-03-07 09:20:53 51°14.594 2°54.854 9.9 4.3 355 9.5
2006-03-07 09:20:58 51°14.599 2°54.854 11.9 4.1 357 9.5
2006-03-07 09:21:04 51°14.605 2°54.854 13.4 3.9 1 9.5
2006-03-07 09:21:08 51°14.61 2°54.854 15.2 3.6 3 9.5
2006-03-07 09:21:13 51°14.614 2°54.855 16.7 3.4 4 9.4
2006-03-07 09:21:18 51°14.619 2°54.855 18 3.2 4 9.3
2006-03-07 09:21:23 51°14.623 2°54.856 19.5 3 8 9.4
2006-03-07 09:21:28 51°14.627 2°54.857 20.8 3.1 5 9.4
2006-03-07 09:21:33 51°14.632 2°54.858 21.7 3.4 8 9.5
2006-03-07 09:21:38 51°14.637 2°54.859 22.7 3.8 10 9.5
2006-03-07 09:21:43 51°14.644 2°54.861 22.7 4.2 9 9.4
2006-03-07 09:21:48 51°14.651 2°54.862 20.8 5 7 9.3
2006-03-07 09:21:52 51°14.658 2°54.863 18.1 5.6 7 9.3
2006-03-07 09:21:58 51°14.669 2°54.864 15.3 6.4 3 9.2
2006-03-07 09:22:03 51°14.679 2°54.863 12.3 7.1 -999 9.2
2006-03-07 09:22:08 51°14.69 2°54.863 9.4 7.8 358 9.3
2006-03-07 09:22:13 51°14.702 2°54.861 6.3 8.5 354 9.2
2006-03-07 09:22:18 51°14.714 2°54.858 4.1 8.6 355 9.3
2006-03-07 09:22:23 51°14.727 2°54.855 2.2 9.3 351 9.1
2006-03-07 09:22:28 51°14.74 2°54.851 0.3 9.6 349 9.1
2006-03-07 09:22:34 51°14.757 2°54.844 357.9 10 347 8.9
2006-03-07 09:22:38 51°14.768 2°54.838 355 10 344 9.1
2006-03-07 09:22:43 51°14.781 2°54.831 352 10.2 341 9
2006-03-07 09:22:48 51°14.793 2°54.822 348.8 10.5 338 9
2006-03-07 09:22:53 51°14.807 2°54.811 345.8 10.7 335 8.9
2006-03-07 09:22:58 51°14.821 2°54.8 342.9 10.9 333 9
2006-03-07 09:23:03 51°14.834 2°54.787 340.3 11.1 329 9
2006-03-07 09:23:08 51°14.847 2°54.774 337.6 11.4 328 8.9
2006-03-07 09:23:13 51°14.861 2°54.758 335 11.6 325 9
2006-03-07 09:23:18 51°14.874 2°54.744 333.8 11.7 326 9
2006-03-07 09:23:23 51°14.887 2°54.728 333.1 11.9 325 9
2006-03-07 09:23:28 51°14.901 2°54.712 332.2 12.2 324 9.1
2006-03-07 09:23:33 51°14.915 2°54.696 331.5 12.2 324 8.9
2006-03-07 09:23:38 51°14.929 2°54.68 331.2 12.4 323 9.2
2006-03-07 09:23:43 51°14.942 2°54.664 330.9 12.3 323 9
2006-03-07 09:23:48 51°14.956 2°54.647 330.9 12.5 323 8.9
2006-03-07 09:23:52 51°14.968 2°54.633 330.9 12.6 324 8.9
2006-03-07 09:23:58 51°14.985 2°54.614 330.9 12.5 324 8.7
2006-03-07 09:24:03 51°14.999 2°54.597 331.4 12.6 324 8.6
2006-03-07 09:24:08 51°15.014 2°54.582 332.4 12.6 325 8.6
2006-03-07 09:24:13 51°15.028 2°54.567 333.1 12.5 326 8.4
2006-03-07 09:24:18 51°15.042 2°54.552 333.7 12.6 327 8.4
2006-03-07 09:24:23 51°15.057 2°54.537 334.5 12.6 328 8.2
2006-03-07 09:24:28 51°15.072 2°54.522 335.2 12.7 328 8.3
2006-03-07 09:24:33 51°15.087 2°54.507 335.3 12.7 328 8.3
2006-03-07 09:24:38 51°15.101 2°54.493 335.6 12.7 328 8.2
2006-03-07 09:24:43 51°15.117 2°54.477 335.3 12.6 327 8.3
2006-03-07 09:24:48 51°15.131 2°54.462 334.8 12.7 327 8.4
2006-03-07 09:24:53 51°15.145 2°54.446 334 12.8 326 8.4
2006-03-07 09:24:58 51°15.159 2°54.43 333.5 12.9 325 8.5
2006-03-07 09:25:03 51°15.174 2°54.413 332.5 12.8 325 8.4
2006-03-07 09:25:08 51°15.189 2°54.396 332.2 12.8 324 8.4
2006-03-07 09:25:12 51°15.201 2°54.383 331.7 12.8 324 8.7
2006-03-07 09:25:18 51°15.218 2°54.363 332 12.9 325 8.5
2006-03-07 09:25:23 51°15.233 2°54.347 332.1 12.9 325 8.6
2006-03-07 09:25:28 51°15.248 2°54.332 333.4 12.9 327 8.8
2006-03-07 09:25:33 51°15.264 2°54.317 334.1 13 327 8.9
2006-03-07 09:25:38 51°15.278 2°54.303 335.3 12.9 329 8.9
2006-03-07 09:25:43 51°15.294 2°54.288 336.3 12.9 330 8.8
2006-03-07 09:25:48 51°15.308 2°54.273 336.8 12.9 328 9.1
2006-03-07 09:25:53 51°15.324 2°54.257 336.4 12.8 328 9
2006-03-07 09:25:58 51°15.338 2°54.241 335.3 12.8 326 9.1
2006-03-07 09:26:04 51°15.356 2°54.222 334.3 12.9 326 9.1
2006-03-07 09:26:08 51°15.367 2°54.209 333.4 13 324 9.2
2006-03-07 09:26:12 51°15.379 2°54.196 332.7 12.9 324 9.2
2006-03-07 09:26:18 51°15.396 2°54.175 332.4 12.7 324 9.1
2006-03-07 09:26:23 51°15.411 2°54.158 332.3 12.8 324 9.4
2006-03-07 09:26:28 51°15.425 2°54.142 332.7 12.8 325 9.7
2006-03-07 09:26:33 51°15.44 2°54.126 333.4 12.8 326 9.7
2006-03-07 09:26:38 51°15.454 2°54.11 334.2 12.8 325 9.6
2006-03-07 09:26:43 51°15.47 2°54.094 334.9 12.8 326 9.9
2006-03-07 09:26:48 51°15.483 2°54.079 335.4 12.7 326 9.9
2006-03-07 09:26:53 51°15.498 2°54.064 335.3 12.7 326 9.8
2006-03-07 09:26:58 51°15.513 2°54.047 335.2 12.7 325 9.9
2006-03-07 09:27:03 51°15.527 2°54.031 334.5 12.8 325 10
2006-03-07 09:27:08 51°15.542 2°54.015 334.3 12.9 324 10
2006-03-07 09:27:12 51°15.553 2°54.001 334 12.9 325 10
2006-03-07 09:27:18 51°15.571 2°53.981 333.8 12.9 324 10.1
2006-03-07 09:27:23 51°15.586 2°53.964 333.8 13 324 10.1
2006-03-07 09:27:28 51°15.601 2°53.947 334.1 13.1 324 10.2
2006-03-07 09:27:33 51°15.616 2°53.931 334.3 13.1 325 10.3
2006-03-07 09:27:38 51°15.63 2°53.914 334.5 13.1 325 10.3
2006-03-07 09:27:43 51°15.645 2°53.898 334.5 13.2 325 10.1
2006-03-07 09:27:48 51°15.66 2°53.881 334.8 13.1 325 10.3
2006-03-07 09:27:53 51°15.675 2°53.865 335 13.2 326 10.3
2006-03-07 09:27:58 51°15.69 2°53.849 335.1 13 326 10.3
2006-03-07 09:28:03 51°15.705 2°53.832 334.9 13 325 10.2
2006-03-07 09:28:08 51°15.72 2°53.815 334.7 13.2 325 10.3
2006-03-07 09:28:13 51°15.735 2°53.798 334.6 13 325 10.4
2006-03-07 09:28:18 51°15.75 2°53.782 334.3 13.1 325 10.4
2006-03-07 09:28:23 51°15.765 2°53.765 334 13.1 325 10.6
2006-03-07 09:28:28 51°15.78 2°53.749 334.4 13.1 325 10.6
2006-03-07 09:28:33 51°15.795 2°53.732 334.5 13.2 326 10.6
2006-03-07 09:28:38 51°15.81 2°53.716 334.7 13.2 326 10.8
2006-03-07 09:28:43 51°15.825 2°53.701 334.9 13.2 326 10.8
2006-03-07 09:28:48 51°15.841 2°53.684 335.2 13.2 326 10.8
2006-03-07 09:28:53 51°15.856 2°53.668 335.1 13.3 327 10.9
2006-03-07 09:28:58 51°15.87 2°53.652 335.2 13.2 326 10.9
2006-03-07 09:29:03 51°15.885 2°53.636 335 13.3 326 10.8
2006-03-07 09:29:08 51°15.901 2°53.618 334.5 13.2 325 10.9
2006-03-07 09:29:12 51°15.913 2°53.605 334.4 13.2 325 11
2006-03-07 09:29:18 51°15.931 2°53.586 334.5 13.2 326 11
2006-03-07 09:29:23 51°15.946 2°53.569 334.8 13.2 326 11
2006-03-07 09:29:28 51°15.961 2°53.554 335.4 13.2 327 11.2
2006-03-07 09:29:33 51°15.977 2°53.538 336 13.1 328 11.1
2006-03-07 09:29:38 51°15.993 2°53.522 336.5 13.1 328 11
2006-03-07 09:29:43 51°16.008 2°53.507 336.6 13.2 327 11.2
2006-03-07 09:29:48 51°16.023 2°53.491 336.4 13.2 327 11.4
2006-03-07 09:29:53 51°16.038 2°53.475 336 13.2 327 11.3
2006-03-07 09:29:58 51°16.055 2°53.458 335.3 13.1 327 11.3
2006-03-07 09:30:03 51°16.069 2°53.443 335.5 13.2 327 11.4
2006-03-07 09:30:08 51°16.085 2°53.427 335.4 13.2 328 11.4
2006-03-07 09:30:13 51°16.1 2°53.411 335.5 13.2 328 11.3
2006-03-07 09:30:18 51°16.116 2°53.396 335.8 13.2 328 11.4
2006-03-07 09:30:23 51°16.131 2°53.38 335.8 13.3 328 11.3
2006-03-07 09:30:28 51°16.147 2°53.365 336 13.2 328 11.5
2006-03-07 09:30:32 51°16.159 2°53.353 336.6 13.3 329 11.5
2006-03-07 09:30:38 51°16.179 2°53.334 336.8 13.3 329 11.4
2006-03-07 09:30:44 51°16.197 2°53.317 337.1 13.3 329 11.5
2006-03-07 09:30:48 51°16.21 2°53.305 336.9 13.1 329 11.5
2006-03-07 09:30:53 51°16.226 2°53.289 336.6 13.3 329 11.7
2006-03-07 09:30:58 51°16.241 2°53.275 336.4 13.2 328 11.6
2006-03-07 09:31:03 51°16.257 2°53.258 336 13.2 328 11.5
2006-03-07 09:31:08 51°16.272 2°53.243 335.3 13.1 327 11.7
2006-03-07 09:31:12 51°16.284 2°53.23 335.3 13.1 327 11.7
2006-03-07 09:31:18 51°16.302 2°53.212 335.3 13.2 327 11.7
2006-03-07 09:31:23 51°16.318 2°53.196 335.6 13.2 327 11.6
2006-03-07 09:31:28 51°16.334 2°53.18 336 13 328 11.6
2006-03-07 09:31:33 51°16.349 2°53.165 336 13.1 327 11.8
2006-03-07 09:31:38 51°16.363 2°53.15 335.5 13.1 327 11.9
2006-03-07 09:31:43 51°16.379 2°53.134 335.3 13 326 11.6
2006-03-07 09:31:48 51°16.394 2°53.118 335 12.9 327 11.6
2006-03-07 09:31:53 51°16.409 2°53.102 335.2 13 327 11.8
2006-03-07 09:31:58 51°16.424 2°53.086 335 13 326 11.6
2006-03-07 09:32:03 51°16.44 2°53.07 335 13.1 327 11.7
2006-03-07 09:32:08 51°16.455 2°53.054 335 13.1 326 11.8
2006-03-07 09:32:13 51°16.47 2°53.038 335 13.1 327 11.9
2006-03-07 09:32:18 51°16.485 2°53.023 334.9 13.2 327 11.8
2006-03-07 09:32:23 51°16.5 2°53.006 335 13.2 327 11.7
2006-03-07 09:32:28 51°16.516 2°52.991 335.3 13.1 328 11.6
2006-03-07 09:32:33 51°16.532 2°52.975 335.8 13.2 327 11.5
2006-03-07 09:32:38 51°16.547 2°52.96 336 13.1 328 11.5
2006-03-07 09:32:43 51°16.562 2°52.945 336.5 13.2 328 11.7
2006-03-07 09:32:48 51°16.578 2°52.929 336.8 13.1 328 11.3
2006-03-07 09:32:52 51°16.59 2°52.917 336.9 13.1 328 11.2
2006-03-07 09:32:58 51°16.608 2°52.899 336.9 13.1 328 11.3
2006-03-07 09:33:03 51°16.624 2°52.883 336.6 13.2 328 11.1
2006-03-07 09:33:08 51°16.64 2°52.867 336.2 13.2 328 11.1
2006-03-07 09:33:13 51°16.655 2°52.851 335.9 13.1 327 11.1
2006-03-07 09:33:18 51°16.671 2°52.836 335.6 13.1 327 10.8
2006-03-07 09:33:23 51°16.686 2°52.821 335.6 13.1 327 10.7
2006-03-07 09:33:28 51°16.702 2°52.805 336 13.2 328 10.7
2006-03-07 09:33:33 51°16.717 2°52.79 336.3 13.1 328 10.5
2006-03-07 09:33:38 51°16.733 2°52.775 336.6 13.2 329 10.5
2006-03-07 09:33:43 51°16.748 2°52.761 336.8 13.1 328 10
2006-03-07 09:33:48 51°16.764 2°52.745 336.8 13.1 329 9.6
2006-03-07 09:33:53 51°16.779 2°52.73 336.8 13.1 329 9.6
2006-03-07 09:33:58 51°16.794 2°52.715 336.5 13.1 328 9.5
2006-03-07 09:34:03 51°16.809 2°52.7 336.1 13.1 328 9.5
2006-03-07 09:34:08 51°16.825 2°52.684 336 13 328 9.5
2006-03-07 09:34:13 51°16.841 2°52.669 335.8 13.1 328 9.3
2006-03-07 09:34:18 51°16.857 2°52.654 335.8 13.1 329 9.2
2006-03-07 09:34:23 51°16.871 2°52.64 336 13.2 329 9.2
2006-03-07 09:34:28 51°16.888 2°52.627 337.1 13.1 331 9.3
2006-03-07 09:34:33 51°16.905 2°52.614 339.7 13 334 9.5
2006-03-07 09:34:38 51°16.921 2°52.604 342.2 13 338 9.6
2006-03-07 09:34:43 51°16.939 2°52.594 345 13 339 9.8
2006-03-07 09:34:48 51°16.956 2°52.584 347.2 13 341 9.8
2006-03-07 09:34:53 51°16.973 2°52.575 348.4 13.1 342 9.9
2006-03-07 09:34:58 51°16.99 2°52.568 349.8 13 342 9.7
2006-03-07 09:35:03 51°17.007 2°52.559 350.9 13.2 344 9.6
2006-03-07 09:35:08 51°17.025 2°52.552 351.7 13 345 9.5
2006-03-07 09:35:13 51°17.043 2°52.546 352.8 13 345 9.5
2006-03-07 09:35:18 51°17.061 2°52.54 354.1 12.9 347 9.4
2006-03-07 09:35:23 51°17.078 2°52.535 355.4 13 349 9.3
2006-03-07 09:35:28 51°17.096 2°52.529 356.4 13 349 9.4
2006-03-07 09:35:33 51°17.114 2°52.524 357.5 13 350 9.4
2006-03-07 09:35:38 51°17.132 2°52.519 358.6 13 351 9.6
2006-03-07 09:35:43 51°17.149 2°52.515 358.8 13.1 351 9.7
2006-03-07 09:35:48 51°17.167 2°52.51 359.3 13.1 352 9.6
2006-03-07 09:35:53 51°17.185 2°52.507 359.4 13.1 352 9.7
2006-03-07 09:35:58 51°17.203 2°52.502 359.8 13.1 351 9.6
2006-03-07 09:36:03 51°17.221 2°52.498 359.5 13.1 351 9.8
2006-03-07 09:36:08 51°17.239 2°52.493 359.5 13.1 350 9.8
2006-03-07 09:36:13 51°17.257 2°52.488 359.3 13.2 351 9.8
2006-03-07 09:36:18 51°17.275 2°52.484 359 13.2 350 9.8
2006-03-07 09:36:23 51°17.294 2°52.478 358.7 13.2 350 9.9
2006-03-07 09:36:28 51°17.311 2°52.473 358.5 13.1 350 9.9
2006-03-07 09:36:33 51°17.329 2°52.469 358.3 13.1 350 9.7
2006-03-07 09:36:38 51°17.347 2°52.464 358.6 13 350 9.9
2006-03-07 09:36:43 51°17.366 2°52.459 358.6 13.2 350 9.9
2006-03-07 09:36:48 51°17.383 2°52.454 358.6 13.2 351 10
2006-03-07 09:36:53 51°17.401 2°52.449 358.6 13.2 351 10
2006-03-07 09:36:58 51°17.419 2°52.445 358.5 13.2 350 9.9
2006-03-07 09:37:03 51°17.437 2°52.439 358.5 13.2 351 10
2006-03-07 09:37:08 51°17.455 2°52.434 358.1 13.1 349 10.1
2006-03-07 09:37:13 51°17.472 2°52.429 358 13.2 350 10.2
2006-03-07 09:37:18 51°17.491 2°52.424 358 13.1 350 10.1
2006-03-07 09:37:23 51°17.509 2°52.42 358.5 13 352 10.3
2006-03-07 09:37:28 51°17.526 2°52.417 359.9 13 353 10.2
2006-03-07 09:37:33 51°17.545 2°52.415 1.7 13 353 10
2006-03-07 09:37:38 51°17.563 2°52.413 4.1 13 356 10.1
2006-03-07 09:37:44 51°17.584 2°52.412 5.2 13 356 10.2
2006-03-07 09:37:48 51°17.598 2°52.411 6.8 12.9 359 10.1
2006-03-07 09:37:53 51°17.616 2°52.412 7.7 12.8 -999 10.1
2006-03-07 09:37:58 51°17.634 2°52.412 8.7 12.9 -999 10.2
2006-03-07 09:38:03 51°17.652 2°52.412 9.5 13 1 10.1
2006-03-07 09:38:08 51°17.67 2°52.414 10.3 12.8 2 10
2006-03-07 09:38:13 51°17.688 2°52.415 10.9 12.8 2 10.1
2006-03-07 09:38:18 51°17.705 2°52.416 11 12.9 3 10.1
2006-03-07 09:38:23 51°17.723 2°52.418 11.7 12.9 4 10
2006-03-07 09:38:28 51°17.741 2°52.421 12.6 12.8 5 10.1
2006-03-07 09:38:34 51°17.762 2°52.425 14.2 12.8 5 10.1
2006-03-07 09:38:38 51°17.776 2°52.428 15.1 12.8 6 10.1
2006-03-07 09:38:43 51°17.794 2°52.432 16 12.9 8 10.1
2006-03-07 09:38:48 51°17.811 2°52.436 16.6 12.8 7 10.1
2006-03-07 09:38:53 51°17.829 2°52.44 16.8 12.9 9 10.2
2006-03-07 09:38:58 51°17.847 2°52.445 17.4 13 8 10.2
2006-03-07 09:39:04 51°17.868 2°52.451 18.2 13 8 10.1
2006-03-07 09:39:08 51°17.882 2°52.456 19.3 13 11 10.2
2006-03-07 09:39:13 51°17.898 2°52.462 20.1 12.8 13 10.3
2006-03-07 09:39:18 51°17.916 2°52.471 21.2 12.6 15 10.1
2006-03-07 09:39:24 51°17.937 2°52.48 23.3 12.7 17 10.2
2006-03-07 09:39:28 51°17.95 2°52.487 24.6 12.7 17 10.2
2006-03-07 09:39:33 51°17.967 2°52.495 25.4 12.7 17 10.3
2006-03-07 09:39:38 51°17.984 2°52.504 25.6 12.7 18 10.3
2006-03-07 09:39:44 51°18.004 2°52.514 26.2 12.7 18 10.3
2006-03-07 09:39:48 51°18.017 2°52.523 27.2 12.7 21 10.4
2006-03-07 09:39:53 51°18.033 2°52.533 28.7 12.7 21 10.4
2006-03-07 09:39:58 51°18.05 2°52.544 29.8 12.8 22 10.3
2006-03-07 09:40:03 51°18.066 2°52.556 30.2 12.7 23 10.4
2006-03-07 09:40:08 51°18.081 2°52.569 32.6 12.6 28 10.5
2006-03-07 09:40:13 51°18.095 2°52.585 36.2 12.6 30 10.3
2006-03-07 09:40:18 51°18.11 2°52.601 39.6 12.6 34 10.3
2006-03-07 09:40:23 51°18.125 2°52.616 41.9 12.6 35 10.5
2006-03-07 09:40:28 51°18.138 2°52.634 43.9 12.6 39 10.4
2006-03-07 09:40:33 51°18.151 2°52.653 45.7 12.6 41 10.5
2006-03-07 09:40:38 51°18.162 2°52.673 49.7 12.4 47 10.6
2006-03-07 09:40:43 51°18.173 2°52.695 54.3 12.4 47 10.6
2006-03-07 09:40:48 51°18.183 2°52.717 58.2 12.4 55 10.5
2006-03-07 09:40:53 51°18.192 2°52.74 60.9 12.5 57 10.5
2006-03-07 09:40:58 51°18.2 2°52.765 64.1 12.5 63 10.6
2006-03-07 09:41:03 51°18.207 2°52.79 68.4 12.4 63 10.6
2006-03-07 09:41:08 51°18.213 2°52.815 71.4 12.4 66 10.7
2006-03-07 09:41:12 51°18.218 2°52.836 74.2 12.4 71 10.8